More Magic — 2DWJ4 — position and weather

sailwx.info

Track history (hours):
 
Tides and Currents Weather Stations Pressure Air Temp Water Temp Dewpoint Dewpoint Depression Visibility Wind Speed Wind Dir Waves Ship Positions

More Magic

Last reported at 2016-May-28 19:29 UTC. Time now 2016-May-31 21:56 UTC.
Position N 39°12' W 027°25'.

Length 20 m.

Type: Sailing vessel. MMSI: 235082545.

Date/timePositionNaut miles runAvg speedWind from/ knotsBaromVisibWave heightAir tempDewpointWater temp
2016-May-28 19:29N 39°12' W 027°25'8 8.1
2016-May-28 18:33N 39°08' W 027°33'8 7.9
2016-May-28 17:33N 39°04' W 027°42'8 7.9
2016-May-28 16:33N 38°60' W 027°51'8 7.8
2016-May-28 15:33N 38°56' W 027°60'8 7.8
2016-May-28 14:33N 38°52' W 028°08'6 6.1
2016-May-28 13:33N 38°49' W 028°15'6 6.4
2016-May-28 12:33N 38°45' W 028°21'8 8.0
2016-May-28 11:34N 38°39' W 028°28'9 8.9
2016-May-28 10:33N 38°32' W 028°36'1 0.1
2016-May-27 21:24N 38°32' W 028°38'0 0.0
2016-May-27 20:33N 38°32' W 028°38'0 0.0
2016-May-27 19:33N 38°32' W 028°38'0 0.0
2016-May-27 18:33N 38°32' W 028°38'0 0.0
2016-May-27 17:33N 38°32' W 028°38'0 0.2
2016-May-27 16:31N 38°32' W 028°37'  
2016-May-24 01:24N 38°32' W 028°38'  
Track history (hours):
 
Tides and Currents Weather Stations Pressure Air Temp Water Temp Dewpoint Dewpoint Depression Visibility Wind Speed Wind Dir Waves Ship Positions

More Magic

Last reported at 2016-May-28 19:29 UTC. Time now 2016-May-31 21:56 UTC.
Position N 39°12' W 027°25'.

Length 20 m.

Type: Sailing vessel. MMSI: 235082545.

Date/timePositionNaut miles runAvg speedWind from/ knotsBaromVisibWave heightAir tempDewpointWater temp
2016-May-28 19:29N 39°12' W 027°25'8 8.1
2016-May-28 18:33N 39°08' W 027°33'8 7.9
2016-May-28 17:33N 39°04' W 027°42'8 7.9
2016-May-28 16:33N 38°60' W 027°51'8 7.8
2016-May-28 15:33N 38°56' W 027°60'8 7.8
2016-May-28 14:33N 38°52' W 028°08'6 6.1
2016-May-28 13:33N 38°49' W 028°15'6 6.4
2016-May-28 12:33N 38°45' W 028°21'8 8.0
2016-May-28 11:34N 38°39' W 028°28'9 8.9
2016-May-28 10:33N 38°32' W 028°36'1 0.1
2016-May-27 21:24N 38°32' W 028°38'0 0.0
2016-May-27 20:33N 38°32' W 028°38'0 0.0
2016-May-27 19:33N 38°32' W 028°38'0 0.0
2016-May-27 18:33N 38°32' W 028°38'0 0.0
2016-May-27 17:33N 38°32' W 028°38'0 0.2
2016-May-27 16:31N 38°32' W 028°37'  
2016-May-24 01:24N 38°32' W 028°38'  

Dump ship's entire track history